Brasstown, NC (28902)

8:15 AM EDT on July 23, 2016 (GMT -0400)
Elevation 1780 | | Change Station

Elev 1780 ft 35.02 °N, 83.97 °W | Updated 6 minutes ago

Scattered Clouds
Scattered Clouds
68.3 °F
Feels Like 68.3 °F
N
0.0
Wind Variable Wind from NNW
Gusts 1.0 mph

Today
High -- | Low -- °F
--% Chance of Precip.
Yesterday
High -- | Low -- °F
Precip. -- in
Pressure 30.10 in
Visibility 7.0 miles
Clouds Scattered Clouds 200 ft
Dew Point 66 °F
Humidity 93%
Rainfall 0.00 in
Snow Depth Not available.
6:38 AM 8:45 PM
Waning Gibbous, 85% visible
METAR KRHP 231200Z AUTO 00000KT 7SM SCT002 20/20 A3010 RMK AO2 T01960196
Pressure 30.10 in
Visibility 7.0 miles
Clouds Scattered Clouds 200 ft
Dew Point 66 °F
Humidity 93%
Rainfall 0.00 in
Snow Depth Not available.
6:38 AM 8:45 PM
Waning Gibbous, 85% visible
METAR KRHP 231200Z AUTO 00000KT 7SM SCT002 20/20 A3010 RMK AO2 T01960196

10-Day Weather Forecast

Almanac

Astronomy

Jul. 23, 2016 Rise Set
Actual Time
Civil Twilight
Nautical Twilight
Astronomical Twilight
Moon
Length of Visible Light
Length of Day
Tomorrow will be .
, % of the Moon is Illuminated

Today's Extremes

State Highs State Lows

Community

WunderPhotos

Upload Photos

1,926,811 photos uploaded!

WunderBlog® & News

Nearby

Air Quality

  Air Quality AQ Index Pollutant
Not available.

Snow Depth

Station Depth Elevation

Earthquake Activity

City Distance Mag. Time & Date
Minimum magnitude displayed is 2.5.

Coastal Water Temperatures

Place Temperature

Stations

Nearby Weather Stations

Station Location Temp. Windchill Dew Point Humidity Wind Precip. Elev Updated Type
                   

Watches & Warnings

There are currently no watches in effect.